Time;durP1;ratioP1;P1;durP2;ratioP2;P2;SDS_P1;SDS_P2;PMS_P1;PMS_P2;Temp;Humidity;BMP_temperature;BMP_pressure;BME280_temperature;BME280_humidity;BME280_pressure;Samples;Min_cycle;Max_cycle;Signal;HPM_P1;HPM_P2
2021/09/02 19:30:48;;;;;;;7.68;6.85;;;;;;;19.02;57.00;99464.88;2610782;46;20038;-67
2021/09/02 19:33:19;;;;;;;10.35;7.18;;;;;;;19.02;57.29;99464.88;2617942;54;20038;-65
2021/09/02 19:35:49;;;;;;;41.38;32.85;;;;;;;18.92;57.88;99461.94;2618514;54;20596;-66
2021/09/02 19:38:19;;;;;;;12.82;9.80;;;;;;;18.88;58.04;99469.63;2618119;54;20557;-67
2021/09/02 19:40:52;;;;;;;9.75;6.90;;;;;;;18.83;57.87;99466.84;2616889;51;20545;-67
2021/09/02 19:43:23;;;;;;;10.10;7.70;;;;;;;18.84;58.35;99467.66;2618588;54;20026;-65
2021/09/02 19:45:56;;;;;;;9.45;8.45;;;;;;;18.81;58.37;99461.69;2619017;54;20078;-66
2021/09/02 19:48:26;;;;;;;9.38;8.48;;;;;;;18.72;58.52;99463.06;2619675;54;20027;-65
2021/09/02 19:51:11;;;;;;;10.30;8.10;;;;;;;18.62;59.17;99461.97;2617379;54;20054;-66
2021/09/02 19:53:56;;;;;;;9.85;8.48;;;;;;;18.58;59.55;99464.28;2618376;54;20031;-66
2021/09/02 19:56:32;;;;;;;9.63;7.78;;;;;;;18.50;59.63;99468.13;2619805;39;20437;-66
2021/09/02 19:59:03;;;;;;;13.13;10.45;;;;;;;18.46;59.79;99466.94;2619873;54;20531;-66
2021/09/02 20:01:36;;;;;;;12.82;8.60;;;;;;;18.41;59.38;99458.78;2618781;47;20038;-65
2021/09/02 20:04:12;;;;;;;14.50;9.57;;;;;;;18.40;59.95;99461.66;2620350;54;20017;-66
2021/09/02 20:06:49;;;;;;;10.82;8.60;;;;;;;18.39;59.71;99460.03;2619905;54;20026;-66
2021/09/02 20:09:23;;;;;;;12.30;9.15;;;;;;;18.38;59.78;99458.41;2619334;47;20066;-66
2021/09/02 20:11:56;;;;;;;12.73;9.00;;;;;;;18.32;60.25;99458.25;2619075;47;20074;-65
2021/09/02 20:14:30;;;;;;;13.05;8.52;;;;;;;18.34;60.40;99462.59;2619240;51;20030;-65
2021/09/02 20:17:04;;;;;;;11.02;9.63;;;;;;;18.28;59.98;99459.75;2620372;54;20566;-65
2021/09/02 20:19:36;;;;;;;10.48;8.73;;;;;;;18.21;60.61;99460.91;2621634;54;20613;-67
2021/09/02 20:22:09;;;;;;;9.95;8.13;;;;;;;18.12;60.86;99462.25;2622598;54;20038;-66
2021/09/02 20:24:39;;;;;;;9.43;7.93;;;;;;;18.07;61.01;99462.91;2622270;54;20026;-66
2021/09/02 20:27:13;;;;;;;9.63;8.35;;;;;;;18.10;61.10;99464.34;2623165;39;20426;-66
2021/09/02 20:29:45;;;;;;;16.13;11.52;;;;;;;18.12;61.06;99459.56;2621883;31;20556;-66
2021/09/02 20:32:17;;;;;;;12.63;9.98;;;;;;;18.12;60.82;99463.06;2619298;54;20023;-66
2021/09/02 20:34:48;;;;;;;10.73;8.32;;;;;;;18.09;61.14;99460.84;2618778;54;20105;-66
2021/09/02 20:37:25;;;;;;;8.50;7.47;;;;;;;18.05;61.18;99465.03;2619441;54;20039;-67
2021/09/02 20:40:03;;;;;;;8.68;7.70;;;;;;;17.98;61.29;99461.59;2618593;54;20065;-66
2021/09/02 20:42:35;;;;;;;12.05;9.48;;;;;;;17.88;61.25;99466.66;2618625;47;20037;-65
2021/09/02 20:45:06;;;;;;;11.85;8.93;;;;;;;17.85;61.54;99469.78;2619114;54;20129;-65
2021/09/02 20:47:43;;;;;;;9.82;8.32;;;;;;;17.84;61.65;99466.31;2619028;54;20050;-66
2021/09/02 20:50:26;;;;;;;13.30;10.68;;;;;;;17.78;61.54;99462.66;2618273;54;20022;-67
2021/09/02 20:53:03;;;;;;;10.48;8.50;;;;;;;17.66;62.07;99453.69;2618866;54;20561;-66
2021/09/02 20:55:35;;;;;;;9.98;8.95;;;;;;;17.63;62.29;99454.13;2618798;31;20486;-67
2021/09/02 20:58:06;;;;;;;9.00;8.07;;;;;;;17.45;62.79;99456.81;2618746;54;20034;-67
2021/09/02 21:00:38;;;;;;;10.85;9.45;;;;;;;17.37;63.21;99455.25;2617726;54;20035;-66
2021/09/02 21:03:15;;;;;;;10.27;8.13;;;;;;;17.28;63.52;99453.91;2618835;54;20022;-66
2021/09/02 21:05:46;;;;;;;10.75;8.63;;;;;;;17.20;64.04;99456.84;2618647;54;20554;-66
2021/09/02 21:08:18;;;;;;;11.80;8.63;;;;;;;17.15;63.85;99468.19;2618425;46;20162;-66
2021/09/02 21:10:50;;;;;;;12.00;9.07;;;;;;;17.19;63.76;99460.56;2618816;54;20015;-67
2021/09/02 21:13:21;;;;;;;10.68;9.15;;;;;;;17.11;64.46;99463.50;2618589;54;20118;-66
2021/09/02 21:15:53;;;;;;;9.18;8.23;;;;;;;17.02;64.50;99460.28;2618620;54;20170;-66
2021/09/02 21:18:25;;;;;;;10.52;8.73;;;;;;;16.96;64.79;99463.84;2618413;54;20038;-66
2021/09/02 21:21:01;;;;;;;11.57;9.70;;;;;;;16.90;65.24;99462.88;2618156;54;20030;-66
2021/09/02 21:23:34;;;;;;;13.90;10.05;;;;;;;16.88;65.18;99464.91;2618853;54;20026;-65
2021/09/02 21:26:05;;;;;;;12.77;10.63;;;;;;;16.88;65.23;99466.78;2618646;54;20039;-66
2021/09/02 21:28:42;;;;;;;9.93;8.48;;;;;;;16.81;65.07;99459.63;2618409;54;20042;-67
2021/09/02 21:31:16;;;;;;;10.98;8.35;;;;;;;16.71;65.34;99464.59;2618376;54;20046;-66
2021/09/02 21:34:03;;;;;;;10.57;8.05;;;;;;;16.62;66.13;99468.56;2618014;47;20034;-65
2021/09/02 21:36:32;;;;;;;12.20;8.85;;;;;;;16.56;66.09;99464.06;2618711;54;20042;-65
2021/09/02 21:39:04;;;;;;;10.95;9.57;;;;;;;16.47;66.79;99462.72;2618926;54;20117;-66
2021/09/02 21:41:35;;;;;;;10.50;8.93;;;;;;;16.37;66.65;99462.34;2617722;46;20098;-66
2021/09/02 21:44:07;;;;;;;12.55;8.80;;;;;;;16.30;66.93;99465.88;2618418;54;20050;-66
2021/09/02 21:46:42;;;;;;;11.68;9.77;;;;;;;16.30;67.14;99465.88;2618501;54;20035;-67
2021/09/02 21:49:14;;;;;;;10.00;8.85;;;;;;;16.31;67.62;99464.84;2618437;54;20103;-67
2021/09/02 21:51:44;;;;;;;9.52;8.25;;;;;;;16.28;67.60;99467.13;2618583;39;20468;-65
2021/09/02 21:54:14;;;;;;;9.57;8.35;;;;;;;16.21;67.26;99464.50;2618528;39;20430;-65
2021/09/02 21:56:45;;;;;;;12.30;9.20;;;;;;;16.09;67.68;99469.69;2617820;54;20114;-66
2021/09/02 21:59:16;;;;;;;10.05;8.70;;;;;;;16.00;68.04;99464.78;2618454;54;20086;-66
2021/09/02 22:01:49;;;;;;;11.45;9.45;;;;;;;15.90;68.67;99464.41;2618079;54;20622;-65
2021/09/02 22:04:25;;;;;;;;;;;;;;;15.80;68.41;99468.34;2618986;54;20031;-65
2021/09/02 22:06:55;;;;;;;11.15;8.27;;;;;;;15.78;69.03;99467.72;2618677;54;19939;-66
2021/09/02 22:09:27;;;;;;;11.45;9.25;;;;;;;15.75;68.93;99460.16;2618641;54;20137;-65
2021/09/02 22:12:02;;;;;;;11.20;8.82;;;;;;;15.78;69.31;99457.06;2618236;54;20045;-65
2021/09/02 22:14:33;;;;;;;13.10;8.98;;;;;;;15.81;68.87;99455.84;2618370;54;20034;-66
2021/09/02 22:17:17;;;;;;;10.55;8.93;;;;;;;15.81;68.88;99458.50;2618272;54;20034;-67
2021/09/02 22:19:56;;;;;;;9.93;8.95;;;;;;;15.76;69.10;99458.34;2618588;39;20527;-65
2021/09/02 22:22:27;;;;;;;13.07;9.20;;;;;;;15.73;69.31;99461.41;2618029;54;20050;-65
2021/09/02 22:24:58;;;;;;;11.35;8.75;;;;;;;15.68;69.47;99462.03;2618485;54;20038;-66
2021/09/02 22:27:28;;;;;;;12.90;9.98;;;;;;;15.67;69.79;99455.06;2618554;54;20617;-65
2021/09/02 22:30:00;;;;;;;11.82;9.55;;;;;;;15.64;69.19;99462.63;2618082;54;20094;-65
2021/09/02 22:32:34;;;;;;;10.07;8.80;;;;;;;15.55;69.87;99457.53;2618696;54;20130;-64
2021/09/02 22:35:08;;;;;;;13.05;9.57;;;;;;;15.54;69.72;99461.22;2618763;54;20086;-65
2021/09/02 22:37:38;;;;;;;;;;;;;;;15.46;69.30;99457.94;2619214;39;20591;-65
2021/09/02 22:40:10;;;;;;;14.02;8.43;;;;;;;15.40;69.54;99451.63;2618248;54;20017;-65
2021/09/02 22:42:41;;;;;;;9.40;8.10;;;;;;;15.28;70.28;99455.94;2618114;54;20155;-65
2021/09/02 22:45:12;;;;;;;11.00;9.07;;;;;;;15.24;70.19;99458.19;2618774;54;20034;-65
2021/09/02 22:47:43;;;;;;;9.55;8.55;;;;;;;15.18;70.27;99450.19;2619203;31;20524;-65
2021/09/02 22:50:17;;;;;;;9.32;8.35;;;;;;;15.16;70.30;99454.94;2618104;54;20030;-65
2021/09/02 22:52:46;;;;;;;9.18;8.23;;;;;;;15.18;70.64;99447.53;2618221;47;20034;-64
2021/09/02 22:55:17;;;;;;;10.05;9.05;;;;;;;15.15;70.35;99443.47;2618851;54;20596;-65
2021/09/02 22:57:48;;;;;;;14.40;9.20;;;;;;;15.07;70.27;99447.16;2619020;54;20045;-64
2021/09/02 23:00:19;;;;;;;10.40;9.20;;;;;;;15.01;71.08;99441.81;2618274;54;20540;-65
2021/09/02 23:02:49;;;;;;;10.65;8.32;;;;;;;14.96;71.43;99446.94;2618657;54;20038;-64
2021/09/02 23:05:22;;;;;;;12.10;9.85;;;;;;;14.84;71.61;99446.72;2618694;54;20166;-64
2021/09/02 23:07:59;;;;;;;10.52;9.43;;;;;;;14.73;71.78;99440.16;2618434;54;20090;-65
2021/09/02 23:10:37;;;;;;;9.80;8.75;;;;;;;14.71;72.29;99444.06;2617355;54;20058;-64
2021/09/02 23:13:08;;;;;;;14.80;9.23;;;;;;;14.72;71.74;99440.38;2618525;54;20031;-65
2021/09/02 23:15:45;;;;;;;10.63;9.05;;;;;;;14.69;71.82;99436.28;2618289;47;20147;-65
2021/09/02 23:18:15;;;;;;;10.10;8.63;;;;;;;14.68;71.82;99437.31;2618250;54;20045;-65
2021/09/02 23:20:49;;;;;;;11.23;8.95;;;;;;;14.73;71.89;99434.03;2617948;54;20650;-65
2021/09/02 23:23:23;;;;;;;13.23;9.10;;;;;;;14.74;71.73;99428.53;2618068;54;20027;-64
2021/09/02 23:25:58;;;;;;;11.73;9.27;;;;;;;14.74;72.00;99430.38;2618815;54;20054;-65
2021/09/02 23:28:30;;;;;;;12.27;9.68;;;;;;;14.70;71.70;99429.13;2619052;54;20122;-64
2021/09/02 23:31:00;;;;;;;13.57;9.55;;;;;;;14.70;71.97;99429.94;2618312;54;20031;-64
2021/09/02 23:33:29;;;;;;;11.85;9.05;;;;;;;14.73;71.86;99428.72;2619682;54;20031;-64
2021/09/02 23:36:02;;;;;;;11.02;9.25;;;;;;;14.76;71.71;99425.66;2619122;47;20027;-65
2021/09/02 23:38:33;;;;;;;12.00;9.80;;;;;;;14.72;71.43;99421.75;2618824;54;20054;-65
2021/09/02 23:41:03;;;;;;;12.93;9.85;;;;;;;14.68;71.51;99425.84;2618427;54;20066;-65
2021/09/02 23:43:34;;;;;;;12.88;10.02;;;;;;;14.60;71.32;99427.69;2619703;31;20543;-65
2021/09/02 23:46:05;;;;;;;12.73;9.98;;;;;;;14.50;71.72;99421.94;2619016;54;20042;-65
2021/09/02 23:48:36;;;;;;;11.90;10.30;;;;;;;14.40;71.82;99418.81;2618943;54;20026;-65
2021/09/02 23:51:09;;;;;;;12.18;10.27;;;;;;;14.30;72.38;99418.41;2618563;54;20150;-65
2021/09/02 23:53:39;;;;;;;11.57;9.82;;;;;;;14.24;73.01;99421.84;2618446;47;20150;-65
2021/09/02 23:56:08;;;;;;;12.40;10.10;;;;;;;14.20;72.85;99409.97;2618695;54;20129;-65
2021/09/02 23:58:38;;;;;;;12.40;9.75;;;;;;;14.22;73.09;99410.63;2618667;54;20030;-65
